createdAt,value
2018-07-06T00:02:02.486Z,21.77
2018-07-06T00:06:17.222Z,21.74
2018-07-06T00:10:33.006Z,21.74
2018-07-06T00:14:47.729Z,21.75
2018-07-06T00:19:04.457Z,21.74
2018-07-06T00:23:20.466Z,21.72
2018-07-06T00:27:37.261Z,21.73
2018-07-06T00:31:51.925Z,21.74
2018-07-06T00:36:07.721Z,21.74
2018-07-06T00:40:23.436Z,21.73
2018-07-06T00:44:39.357Z,21.72
2018-07-06T00:48:56.955Z,21.74
2018-07-06T00:53:13.738Z,21.72
2018-07-06T00:57:28.455Z,21.72
2018-07-06T01:01:43.307Z,21.71
2018-07-06T01:05:58.971Z,21.73
2018-07-06T01:10:13.724Z,21.75
2018-07-06T01:14:30.380Z,21.75
2018-07-06T01:18:45.218Z,21.76
2018-07-06T01:22:59.954Z,21.76
2018-07-06T01:27:15.812Z,21.78
2018-07-06T01:31:30.782Z,21.78
2018-07-06T01:35:45.449Z,21.78
2018-07-06T01:40:00.289Z,21.75
2018-07-06T01:44:15.937Z,21.75
2018-07-06T01:48:31.768Z,21.75
2018-07-06T01:52:47.546Z,21.73
2018-07-06T01:57:02.049Z,21.72
2018-07-06T02:01:16.629Z,21.69
2018-07-06T02:05:35.180Z,21.70
2018-07-06T02:09:52.014Z,21.67
2018-07-06T02:14:06.674Z,21.69
2018-07-06T02:18:23.399Z,21.70
2018-07-06T02:22:38.090Z,21.69
2018-07-06T02:26:54.268Z,21.71
2018-07-06T02:31:08.982Z,21.71
2018-07-06T02:35:23.753Z,21.73
2018-07-06T02:39:38.486Z,21.71
2018-07-06T02:43:53.348Z,21.71
2018-07-06T02:48:10.243Z,21.70
2018-07-06T02:52:25.964Z,21.72
2018-07-06T02:56:40.687Z,21.75
2018-07-06T03:00:55.333Z,21.73
2018-07-06T03:05:13.427Z,21.71
2018-07-06T03:09:28.093Z,21.70
2018-07-06T03:13:42.901Z,21.72
2018-07-06T03:17:57.476Z,21.73
2018-07-06T03:22:14.198Z,21.72
2018-07-06T03:26:28.842Z,21.72
2018-07-06T03:30:43.598Z,21.75
2018-07-06T03:34:59.309Z,21.74
2018-07-06T03:39:13.928Z,21.74
2018-07-06T03:43:28.659Z,21.72
2018-07-06T03:47:43.241Z,21.73
2018-07-06T03:51:57.987Z,21.75
2018-07-06T03:56:12.678Z,21.77
2018-07-06T04:00:28.300Z,21.78
2018-07-06T04:04:42.937Z,21.80
2018-07-06T04:08:57.616Z,21.81
2018-07-06T04:13:13.781Z,21.82
2018-07-06T04:17:28.324Z,21.83
2018-07-06T04:21:48.356Z,21.85
2018-07-06T04:26:03.132Z,21.87
2018-07-06T04:30:17.825Z,21.88
2018-07-06T04:34:32.480Z,21.90
2018-07-06T04:38:47.145Z,21.90
2018-07-06T04:43:01.856Z,21.93
2018-07-06T04:47:16.589Z,21.95
2018-07-06T04:51:31.239Z,21.95
2018-07-06T04:55:45.930Z,22.00
2018-07-06T05:00:00.642Z,22.03
2018-07-06T05:04:15.371Z,22.06
2018-07-06T05:08:30.189Z,22.10
2018-07-06T05:12:44.750Z,22.12
2018-07-06T05:16:59.520Z,22.16
2018-07-06T05:21:14.177Z,22.17
2018-07-06T05:25:29.193Z,22.22
2018-07-06T05:29:43.969Z,22.26
2018-07-06T05:33:58.720Z,22.30
2018-07-06T05:38:13.569Z,22.33
2018-07-06T05:42:28.241Z,22.36
2018-07-06T05:46:42.996Z,22.42
2018-07-06T05:50:57.682Z,22.47
2018-07-06T06:00:01.033Z,22.52
2018-07-06T09:39:18.167Z,23.23
2018-07-06T09:43:21.483Z,23.22
2018-07-06T09:47:25.339Z,23.28
2018-07-06T09:51:28.822Z,23.26
2018-07-06T09:55:32.255Z,23.29
2018-07-06T10:10:32.275Z,23.15
2018-07-06T10:14:35.711Z,23.15
2018-07-06T10:18:40.285Z,23.35
2018-07-06T10:22:43.833Z,23.17
2018-07-06T10:26:48.282Z,23.15
2018-07-06T10:32:04.164Z,23.14
2018-07-06T10:36:07.629Z,23.16
2018-07-06T10:40:11.057Z,23.18
2018-07-06T10:44:14.445Z,23.17
2018-07-06T10:48:17.937Z,23.17
2018-07-06T10:52:21.337Z,23.14
2018-07-06T10:56:24.738Z,23.16
2018-07-06T11:00:28.098Z,23.22
2018-07-06T11:04:31.481Z,23.19
2018-07-06T11:08:34.885Z,23.15
2018-07-06T11:12:38.279Z,23.12
2018-07-06T11:16:41.689Z,23.14
2018-07-06T11:20:45.093Z,23.15
2018-07-06T11:24:48.537Z,23.19
2018-07-06T11:28:51.908Z,23.24
2018-07-06T11:32:55.305Z,23.23
2018-07-06T11:36:58.742Z,23.23
2018-07-06T14:21:22.073Z,25.46
2018-07-06T14:25:25.587Z,25.48
2018-07-06T14:29:29.373Z,25.50
2018-07-06T14:33:32.864Z,25.54
2018-07-06T14:37:36.390Z,25.59
2018-07-06T14:41:39.822Z,25.63
2018-07-06T14:45:43.221Z,25.66
2018-07-06T14:49:46.633Z,25.66
2018-07-06T14:53:50.061Z,25.69
2018-07-06T14:57:53.480Z,25.71
2018-07-06T15:01:56.911Z,25.71
2018-07-06T15:06:00.320Z,25.74
2018-07-06T15:10:03.707Z,25.78
2018-07-06T15:14:07.153Z,25.81
2018-07-06T15:18:10.690Z,25.86
2018-07-06T15:22:14.075Z,25.89
2018-07-06T15:26:17.505Z,25.86
2018-07-06T15:30:20.925Z,25.85
2018-07-06T15:34:24.377Z,25.81
2018-07-06T15:38:27.818Z,25.83
2018-07-06T15:42:31.269Z,25.88
2018-07-06T15:46:34.714Z,25.88
2018-07-06T15:50:38.311Z,25.95
2018-07-06T15:54:41.736Z,25.99
2018-07-06T15:58:45.189Z,25.99
2018-07-06T16:02:49.619Z,25.95
2018-07-06T16:06:53.190Z,25.89
2018-07-06T16:10:56.713Z,25.85
2018-07-06T16:15:00.169Z,25.76
2018-07-06T16:19:04.734Z,25.70
2018-07-06T16:23:09.316Z,25.67
2018-07-06T16:27:13.813Z,25.62
2018-07-06T16:31:17.381Z,25.54
2018-07-06T16:35:20.949Z,25.44
2018-07-06T16:39:24.448Z,25.31
2018-07-06T16:43:27.946Z,25.30
2018-07-06T16:47:31.728Z,25.24
2018-07-06T16:51:35.260Z,25.12
2018-07-06T16:55:38.956Z,25.17
2018-07-06T16:59:42.419Z,24.97
2018-07-06T17:03:45.873Z,24.81
2018-07-06T17:07:49.332Z,24.72
2018-07-06T17:11:52.841Z,24.68
2018-07-06T17:15:56.449Z,24.60
2018-07-06T17:20:01.670Z,24.51
2018-07-06T17:24:05.133Z,24.42
2018-07-06T17:32:46.384Z,24.20
2018-07-06T17:36:49.943Z,24.14
2018-07-06T17:40:53.337Z,24.11
2018-07-06T17:44:56.813Z,24.08
2018-07-06T17:49:00.806Z,24.04
2018-07-06T17:53:05.558Z,23.99
2018-07-06T17:57:08.960Z,23.94
2018-07-06T18:01:12.531Z,23.85
2018-07-06T18:05:15.995Z,23.69
2018-07-06T18:09:19.531Z,23.52
2018-07-06T18:13:23.016Z,23.35
2018-07-06T18:17:26.662Z,23.20
2018-07-06T18:21:30.181Z,22.96
2018-07-06T18:25:33.780Z,22.58
2018-07-06T18:29:37.544Z,22.24
2018-07-06T18:33:41.040Z,21.94
2018-07-06T18:37:44.530Z,21.78
2018-07-06T18:41:48.038Z,21.74
2018-07-06T18:45:51.560Z,21.76
2018-07-06T18:49:54.990Z,21.77
2018-07-06T18:53:58.424Z,21.75
2018-07-06T18:58:01.874Z,21.74
2018-07-06T19:02:05.411Z,21.74
2018-07-06T19:06:08.908Z,21.72
2018-07-06T19:10:12.481Z,21.72
2018-07-06T19:14:16.330Z,21.71
2018-07-06T19:22:22.448Z,21.56
2018-07-06T19:26:25.973Z,21.52
2018-07-06T19:30:29.492Z,21.50
2018-07-06T19:34:33.015Z,21.49
2018-07-06T19:38:36.516Z,21.45
2018-07-06T19:42:39.955Z,21.42
2018-07-06T19:46:43.747Z,21.41
2018-07-06T19:50:48.440Z,21.39
2018-07-06T19:54:51.915Z,21.39
2018-07-06T19:58:55.419Z,21.39
2018-07-06T20:02:58.855Z,21.41
2018-07-06T20:07:05.902Z,21.43
